createdAt,value
2018-10-02T00:00:22.691Z,0
2018-10-02T00:01:23.689Z,0
2018-10-02T00:02:23.426Z,0
2018-10-02T00:03:23.145Z,0
2018-10-02T00:04:22.896Z,0
2018-10-02T00:05:23.657Z,0
2018-10-02T00:06:23.137Z,0
2018-10-02T00:07:23.150Z,0
2018-10-02T00:08:23.456Z,0
2018-10-02T00:09:22.865Z,0
2018-10-02T00:10:23.632Z,0
2018-10-02T00:11:23.623Z,0
2018-10-02T00:12:23.108Z,0
2018-10-02T00:13:23.114Z,0
2018-10-02T00:14:23.086Z,0
2018-10-02T00:15:23.602Z,0
2018-10-02T00:16:22.827Z,0
2018-10-02T00:17:23.341Z,0
2018-10-02T00:18:23.075Z,0
2018-10-02T00:19:23.074Z,0
2018-10-02T00:20:23.565Z,0
2018-10-02T00:21:23.328Z,0
2018-10-02T00:22:23.336Z,0
2018-10-02T00:23:23.313Z,0
2018-10-02T00:24:23.333Z,0
2018-10-02T00:25:23.046Z,0
2018-10-02T00:26:23.543Z,0
2018-10-02T00:27:23.619Z,0
2018-10-02T00:28:23.583Z,0
2018-10-02T00:29:23.279Z,0
2018-10-02T00:30:23.727Z,0
2018-10-02T00:31:23.505Z,0
2018-10-02T00:32:24.090Z,0
2018-10-02T00:33:23.279Z,0
2018-10-02T00:34:23.287Z,0
2018-10-02T00:35:23.227Z,0
2018-10-02T00:36:23.247Z,0
2018-10-02T00:37:23.247Z,0
2018-10-02T00:38:22.750Z,0
2018-10-02T00:39:23.228Z,0
2018-10-02T00:40:23.228Z,0
2018-10-02T00:41:22.974Z,0
2018-10-02T00:42:23.219Z,0
2018-10-02T00:43:23.207Z,0
2018-10-02T00:44:22.931Z,0
2018-10-02T00:45:22.936Z,0
2018-10-02T00:46:22.944Z,0
2018-10-02T00:47:23.179Z,0
2018-10-02T00:48:22.652Z,0
2018-10-02T00:49:23.451Z,0
2018-10-02T00:50:23.150Z,0
2018-10-02T00:51:23.407Z,0
2018-10-02T00:52:23.389Z,0
2018-10-02T00:53:23.148Z,0
2018-10-02T00:54:23.158Z,0
2018-10-02T00:55:22.890Z,0
2018-10-02T00:56:22.864Z,0
2018-10-02T00:57:23.130Z,0
2018-10-02T00:58:23.107Z,0
2018-10-02T00:59:22.855Z,0
2018-10-02T01:00:23.113Z,0
2018-10-02T01:01:22.856Z,0
2018-10-02T01:02:23.104Z,0
2018-10-02T01:03:23.081Z,0
2018-10-02T01:04:23.099Z,0
2018-10-02T01:05:23.338Z,0
2018-10-02T01:06:23.056Z,0
2018-10-02T01:07:23.101Z,0
2018-10-02T01:08:22.790Z,0
2018-10-02T01:09:23.063Z,0
2018-10-02T01:10:23.033Z,0
2018-10-02T01:11:22.521Z,0
2018-10-02T01:12:22.510Z,0
2018-10-02T01:13:22.514Z,0
2018-10-02T01:14:22.528Z,0
2018-10-02T01:15:23.279Z,0
2018-10-02T01:16:22.750Z,0
2018-10-02T01:17:22.737Z,0
2018-10-02T01:18:23.002Z,0
2018-10-02T01:19:23.258Z,0
2018-10-02T01:20:22.723Z,0
2018-10-02T01:21:22.999Z,0
2018-10-02T01:22:22.713Z,0
2018-10-02T01:23:22.743Z,0
2018-10-02T01:24:22.965Z,0
2018-10-02T01:25:22.716Z,0
2018-10-02T01:26:22.722Z,0
2018-10-02T01:27:23.200Z,0
2018-10-02T01:28:22.991Z,0
2018-10-02T01:29:22.701Z,0
2018-10-02T01:30:22.996Z,0
2018-10-02T01:31:22.940Z,0
2018-10-02T01:32:22.941Z,0
2018-10-02T01:33:22.915Z,0
2018-10-02T01:34:23.190Z,0
2018-10-02T01:35:22.700Z,0
2018-10-02T01:36:22.643Z,0
2018-10-02T01:37:22.895Z,0
2018-10-02T01:38:22.380Z,0
2018-10-02T01:39:22.877Z,0
2018-10-02T01:40:23.111Z,0
2018-10-02T01:41:22.356Z,0
2018-10-02T01:42:22.872Z,0
2018-10-02T01:43:22.836Z,0
2018-10-02T01:44:22.882Z,0
2018-10-02T01:45:22.846Z,0
2018-10-02T01:46:22.854Z,0
2018-10-02T01:47:22.055Z,0
2018-10-02T01:48:23.086Z,0
2018-10-02T01:49:22.820Z,0
2018-10-02T01:50:22.823Z,0
2018-10-02T01:51:23.060Z,0
2018-10-02T01:52:22.800Z,0
2018-10-02T01:53:22.568Z,0
2018-10-02T01:54:22.526Z,0
2018-10-02T01:55:23.079Z,0
2018-10-02T01:56:22.539Z,0
2018-10-02T01:57:22.767Z,0
2018-10-02T01:58:22.525Z,0
2018-10-02T01:59:22.764Z,0
2018-10-02T02:00:22.998Z,0
2018-10-02T02:01:22.741Z,0
2018-10-02T02:02:22.734Z,0
2018-10-02T02:03:23.001Z,0
2018-10-02T02:04:22.522Z,0
2018-10-02T02:05:22.715Z,0
2018-10-02T02:06:22.441Z,0
2018-10-02T02:07:22.718Z,0
2018-10-02T02:08:22.687Z,0
2018-10-02T02:09:22.720Z,0
2018-10-02T02:10:22.711Z,0
2018-10-02T02:11:22.929Z,0
2018-10-02T02:12:22.156Z,0
2018-10-02T02:13:22.918Z,0
2018-10-02T02:14:22.156Z,0
2018-10-02T02:15:22.913Z,0
2018-10-02T02:16:22.668Z,0
2018-10-02T02:17:22.635Z,0
2018-10-02T02:18:23.095Z,0
2018-10-02T02:19:22.381Z,0
2018-10-02T02:20:22.625Z,0
2018-10-02T02:21:22.621Z,0
2018-10-02T02:22:22.090Z,0
2018-10-02T02:23:22.602Z,0
2018-10-02T02:24:22.346Z,0
2018-10-02T02:25:22.625Z,0
2018-10-02T02:26:22.594Z,0
2018-10-02T02:27:22.322Z,0
2018-10-02T02:28:22.338Z,0
2018-10-02T02:29:22.562Z,0
2018-10-02T02:30:22.780Z,0
2018-10-02T02:31:22.809Z,0
2018-10-02T02:32:22.824Z,0
2018-10-02T02:33:22.534Z,0
2018-10-02T02:34:22.819Z,0
2018-10-02T02:35:22.569Z,0
2018-10-02T02:36:22.273Z,0
2018-10-02T02:37:22.260Z,0
2018-10-02T02:38:22.265Z,0
2018-10-02T02:39:22.753Z,0
2018-10-02T02:40:21.958Z,0
2018-10-02T02:41:22.483Z,0
2018-10-02T02:42:22.456Z,0
2018-10-02T02:43:22.483Z,0
2018-10-02T02:44:22.746Z,0
2018-10-02T02:45:22.520Z,0
2018-10-02T02:46:22.492Z,0
2018-10-02T02:47:22.217Z,0
2018-10-02T02:48:22.183Z,0
2018-10-02T02:49:22.453Z,0
2018-10-02T02:50:22.525Z,0
2018-10-02T02:51:22.700Z,0
2018-10-02T02:52:22.712Z,0
2018-10-02T02:53:22.199Z,0
2018-10-02T02:54:22.179Z,0
2018-10-02T02:55:22.166Z,0
2018-10-02T02:56:22.652Z,0
2018-10-02T02:57:22.139Z,0
2018-10-02T02:58:22.410Z,0
2018-10-02T02:59:21.899Z,0
2018-10-02T03:00:22.394Z,0
2018-10-02T03:01:22.131Z,0
2018-10-02T03:02:22.097Z,0
2018-10-02T03:03:22.599Z,0
2018-10-02T03:04:22.359Z,0
2018-10-02T03:05:22.695Z,0
2018-10-02T03:06:22.072Z,0
2018-10-02T03:07:21.830Z,0
2018-10-02T03:08:22.574Z,0
2018-10-02T03:09:22.332Z,0
2018-10-02T03:10:21.796Z,0
2018-10-02T03:11:22.336Z,0
2018-10-02T03:12:22.044Z,0
2018-10-02T03:13:22.057Z,0
2018-10-02T03:14:22.318Z,0
2018-10-02T03:15:22.040Z,0
2018-10-02T03:16:22.290Z,0
2018-10-02T03:17:22.273Z,0
2018-10-02T03:18:24.290Z,0
2018-10-02T03:19:22.020Z,0
2018-10-02T03:20:21.835Z,0
2018-10-02T03:21:22.012Z,0
2018-10-02T03:22:22.491Z,0
2018-10-02T03:23:22.229Z,0
2018-10-02T03:24:22.243Z,0
2018-10-02T03:25:21.790Z,0
2018-10-02T03:26:22.020Z,0
2018-10-02T03:27:22.473Z,0
2018-10-02T03:28:22.192Z,0
2018-10-02T03:29:21.677Z,0
2018-10-02T03:30:22.483Z,0
2018-10-02T03:31:22.433Z,0
2018-10-02T03:32:22.430Z,0
2018-10-02T03:33:21.900Z,0
2018-10-02T03:34:21.904Z,0
2018-10-02T03:35:21.921Z,0
2018-10-02T03:36:22.150Z,0
2018-10-02T03:37:22.430Z,0
2018-10-02T03:38:21.872Z,0
2018-10-02T03:39:21.863Z,0
2018-10-02T03:40:22.169Z,0
2018-10-02T03:41:22.433Z,0
2018-10-02T03:42:21.611Z,0
2018-10-02T03:43:22.123Z,0
2018-10-02T03:44:22.333Z,0
2018-10-02T03:45:22.170Z,0
2018-10-02T03:46:22.074Z,0
2018-10-02T03:47:22.072Z,0
2018-10-02T03:48:22.312Z,0
2018-10-02T03:49:25.805Z,0
2018-10-02T03:50:22.105Z,0
2018-10-02T03:51:21.780Z,0
2018-10-02T03:52:21.781Z,0
2018-10-02T03:53:22.030Z,0
2018-10-02T03:54:22.287Z,0
2018-10-02T03:55:22.360Z,0
2018-10-02T03:56:22.264Z,0
2018-10-02T03:57:22.326Z,0
2018-10-02T03:58:22.260Z,0
2018-10-02T03:59:22.243Z,0
2018-10-02T04:00:21.478Z,0
2018-10-02T04:01:21.483Z,0
2018-10-02T04:02:21.478Z,0
2018-10-02T04:03:21.755Z,0
2018-10-02T04:04:22.209Z,0
2018-10-02T04:05:22.245Z,0
2018-10-02T04:06:21.932Z,0
2018-10-02T04:07:22.204Z,0
2018-10-02T04:08:21.915Z,0
2018-10-02T04:09:22.211Z,0
2018-10-02T04:10:21.714Z,0
2018-10-02T04:11:21.907Z,0
2018-10-02T04:12:21.931Z,0
2018-10-02T04:13:22.402Z,0
2018-10-02T04:14:22.147Z,0
2018-10-02T04:15:21.743Z,0
2018-10-02T04:16:21.896Z,0
2018-10-02T04:17:21.861Z,0
2018-10-02T04:18:22.121Z,0
2018-10-02T04:19:25.354Z,0
2018-10-02T04:20:21.681Z,0
2018-10-02T04:21:21.850Z,0
2018-10-02T04:22:21.585Z,0
2018-10-02T04:23:21.827Z,0
2018-10-02T04:24:21.812Z,0
2018-10-02T04:25:21.394Z,0
2018-10-02T04:26:21.787Z,0
2018-10-02T04:27:21.274Z,0
2018-10-02T04:28:21.904Z,0
2018-10-02T04:29:21.516Z,0
2018-10-02T04:30:22.201Z,0
2018-10-02T04:31:22.046Z,0
2018-10-02T04:32:21.764Z,0
2018-10-02T04:33:21.767Z,0
2018-10-02T04:34:22.112Z,0
2018-10-02T04:35:21.801Z,0
2018-10-02T04:36:21.710Z,0
2018-10-02T04:37:21.473Z,0
2018-10-02T04:38:21.723Z,0
2018-10-02T04:39:21.565Z,0
2018-10-02T04:40:22.008Z,0
2018-10-02T04:41:21.180Z,0
2018-10-02T04:42:21.693Z,0
2018-10-02T04:43:21.928Z,0
2018-10-02T04:44:21.416Z,0
2018-10-02T04:45:21.462Z,0
2018-10-02T04:46:21.928Z,0
2018-10-02T04:47:21.647Z,0
2018-10-02T04:48:21.906Z,0
2018-10-02T04:49:21.902Z,0
2018-10-02T04:50:22.238Z,0
2018-10-02T04:51:21.359Z,0
2018-10-02T04:52:21.870Z,0
2018-10-02T04:53:21.608Z,0
2018-10-02T04:54:21.600Z,0
2018-10-02T04:55:22.058Z,0
2018-10-02T04:56:20.922Z,0
2018-10-02T04:57:21.595Z,0
2018-10-02T04:58:21.333Z,0
2018-10-02T04:59:21.314Z,0
2018-10-02T05:00:21.621Z,0
2018-10-02T05:01:21.074Z,0
2018-10-02T05:02:21.445Z,0
2018-10-02T05:03:21.546Z,0
2018-10-02T05:04:21.533Z,0
2018-10-02T05:05:21.574Z,0
2018-10-02T05:06:21.532Z,0
2018-10-02T05:07:21.532Z,0
2018-10-02T05:08:21.777Z,0
2018-10-02T05:09:21.519Z,0
2018-10-02T05:10:21.836Z,0
2018-10-02T05:11:20.972Z,0
2018-10-02T05:12:21.734Z,0
2018-10-02T05:13:21.732Z,0
2018-10-02T05:14:21.777Z,0
2018-10-02T05:15:21.524Z,0
2018-10-02T05:16:21.463Z,0
2018-10-02T05:17:21.200Z,0
2018-10-02T05:18:21.469Z,0
2018-10-02T05:19:21.186Z,5
2018-10-02T05:20:21.413Z,5
2018-10-02T05:21:21.416Z,5
2018-10-02T05:22:21.403Z,5
2018-10-02T05:23:21.145Z,5
2018-10-02T05:24:21.410Z,5
2018-10-02T05:25:21.429Z,5
2018-10-02T05:26:21.633Z,5
2018-10-02T05:27:22.169Z,10
2018-10-02T05:28:21.619Z,10
2018-10-02T05:29:21.629Z,10
2018-10-02T05:30:21.585Z,10
2018-10-02T05:31:21.621Z,10
2018-10-02T05:32:21.603Z,15
2018-10-02T05:33:21.351Z,15
2018-10-02T05:34:21.073Z,15
2018-10-02T05:35:21.748Z,15
2018-10-02T05:36:21.094Z,15
2018-10-02T05:37:21.296Z,15
2018-10-02T05:38:21.033Z,15
2018-10-02T05:39:21.049Z,15
2018-10-02T05:40:21.351Z,15
2018-10-02T05:41:21.018Z,15
2018-10-02T05:42:21.259Z,15
2018-10-02T05:43:20.744Z,15
2018-10-02T05:44:21.234Z,20
2018-10-02T05:45:21.282Z,20
2018-10-02T05:46:20.981Z,20
2018-10-02T05:47:21.228Z,20
2018-10-02T05:48:20.955Z,25
2018-10-02T05:49:21.466Z,25
2018-10-02T05:50:21.029Z,25
2018-10-02T05:51:21.438Z,25
2018-10-02T05:52:21.196Z,30
2018-10-02T05:53:21.419Z,35
2018-10-02T05:54:21.162Z,35
2018-10-02T05:55:21.469Z,40
2018-10-02T05:56:21.409Z,40
2018-10-02T05:57:21.193Z,45
2018-10-02T05:58:21.662Z,45
2018-10-02T05:59:20.898Z,45
2018-10-02T06:00:21.433Z,45
2018-10-02T06:01:20.877Z,45
2018-10-02T06:02:20.605Z,50
2018-10-02T06:03:20.853Z,50
2018-10-02T06:04:21.347Z,50
2018-10-02T06:05:21.177Z,55
2018-10-02T06:06:20.843Z,55
2018-10-02T06:07:21.089Z,60
2018-10-02T06:08:21.086Z,55
2018-10-02T06:09:21.092Z,60
2018-10-02T06:10:20.887Z,60
2018-10-02T06:11:20.543Z,65
2018-10-02T06:12:20.814Z,65
2018-10-02T06:13:20.796Z,65
2018-10-02T06:14:20.772Z,70
2018-10-02T06:15:20.580Z,75
2018-10-02T06:16:21.285Z,75
2018-10-02T06:17:21.044Z,80
2018-10-02T06:18:21.257Z,85
2018-10-02T06:19:21.034Z,85
2018-10-02T06:20:20.887Z,90
2018-10-02T06:21:20.979Z,95
2018-10-02T06:22:21.041Z,95
2018-10-02T06:23:20.720Z,95
2018-10-02T06:24:21.221Z,95
2018-10-02T06:25:20.778Z,105
2018-10-02T06:26:21.217Z,115
2018-10-02T06:27:20.692Z,115
2018-10-02T06:28:20.935Z,115
2018-10-02T06:29:20.938Z,115
2018-10-02T06:30:21.119Z,115
2018-10-02T06:31:20.914Z,110
2018-10-02T06:32:21.164Z,105
2018-10-02T06:33:20.925Z,105
2018-10-02T06:34:21.146Z,100
2018-10-02T06:35:21.001Z,100
2018-10-02T06:36:21.148Z,90
2018-10-02T06:37:20.888Z,95
2018-10-02T06:38:21.827Z,95
2018-10-02T06:39:21.145Z,95
2018-10-02T06:40:21.201Z,95
2018-10-02T06:41:20.610Z,95
2018-10-02T06:42:21.148Z,90
2018-10-02T06:43:21.114Z,85
2018-10-02T06:44:20.854Z,85
2018-10-02T06:45:20.960Z,80
2018-10-02T06:46:20.581Z,80
2018-10-02T06:47:20.545Z,80
2018-10-02T06:48:20.832Z,85
2018-10-02T06:49:20.832Z,90
2018-10-02T06:50:20.595Z,90
2018-10-02T06:51:22.302Z,100
2018-10-02T06:52:22.802Z,105
2018-10-02T06:53:20.823Z,105
2018-10-02T06:54:20.540Z,125
2018-10-02T06:55:21.155Z,130
2018-10-02T06:56:20.774Z,150
2018-10-02T06:57:21.069Z,155
2018-10-02T06:58:20.785Z,155
2018-10-02T06:59:20.795Z,160
2018-10-02T07:00:20.830Z,170
2018-10-02T07:01:21.013Z,175
2018-10-02T07:02:20.497Z,190
2018-10-02T07:03:20.749Z,190
2018-10-02T07:04:20.750Z,205
2018-10-02T07:05:20.840Z,210
2018-10-02T07:06:20.724Z,200
2018-10-02T07:07:20.989Z,200
2018-10-02T07:08:21.032Z,245
2018-10-02T07:09:20.722Z,250
2018-10-02T07:10:20.775Z,255
2018-10-02T07:11:20.712Z,255
2018-10-02T07:12:20.189Z,255
2018-10-02T07:13:20.454Z,255
2018-10-02T07:14:20.972Z,255
2018-10-02T07:15:20.465Z,235
2018-10-02T07:16:20.945Z,250
2018-10-02T07:17:20.247Z,230
2018-10-02T07:18:20.948Z,230
2018-10-02T07:19:20.708Z,220
2018-10-02T07:20:20.683Z,160
2018-10-02T07:21:20.447Z,125
2018-10-02T07:22:20.681Z,120
2018-10-02T07:23:20.672Z,120
2018-10-02T07:24:20.675Z,125
2018-10-02T07:25:20.957Z,130
2018-10-02T07:26:21.003Z,130
2018-10-02T07:27:21.589Z,135
2018-10-02T07:28:20.588Z,135
2018-10-02T07:29:20.955Z,140
2018-10-02T07:30:20.904Z,135
2018-10-02T07:31:20.451Z,130
2018-10-02T07:32:20.451Z,130
2018-10-02T07:33:20.689Z,130
2018-10-02T07:34:20.684Z,135
2018-10-02T07:35:20.448Z,140
2018-10-02T07:36:20.654Z,140
2018-10-02T07:37:20.404Z,150
2018-10-02T07:38:20.948Z,160
2018-10-02T07:39:20.410Z,170
2018-10-02T07:40:23.080Z,175
2018-10-02T07:41:20.664Z,180
2018-10-02T07:42:20.941Z,190
2018-10-02T07:43:20.631Z,205
2018-10-02T07:44:20.413Z,210
2018-10-02T07:45:20.689Z,220
2018-10-02T07:46:20.654Z,235
2018-10-02T07:47:20.899Z,245
2018-10-02T07:48:20.445Z,285
2018-10-02T07:49:20.892Z,240
2018-10-02T07:50:23.132Z,225
2018-10-02T07:51:20.371Z,235
2018-10-02T07:52:20.381Z,215
2018-10-02T07:53:20.627Z,200
2018-10-02T07:54:20.628Z,210
2018-10-02T07:55:20.134Z,210
2018-10-02T07:56:20.098Z,215
2018-10-02T07:57:20.363Z,230
2018-10-02T07:58:20.876Z,225
2018-10-02T07:59:20.623Z,225
2018-10-02T08:00:20.648Z,225
2018-10-02T08:01:20.629Z,235
2018-10-02T08:02:20.352Z,225
2018-10-02T08:03:20.948Z,210
2018-10-02T08:04:20.610Z,185
2018-10-02T08:05:20.915Z,180
2018-10-02T08:06:20.760Z,175
2018-10-02T08:07:20.367Z,180
2018-10-02T08:08:20.347Z,180
2018-10-02T08:09:20.860Z,185
2018-10-02T08:10:20.684Z,190
2018-10-02T08:11:20.601Z,190
2018-10-02T08:12:21.275Z,195
2018-10-02T08:13:20.094Z,200
2018-10-02T08:14:20.596Z,200
2018-10-02T08:15:20.471Z,210
2018-10-02T08:16:20.629Z,255
2018-10-02T08:17:20.879Z,230
2018-10-02T08:18:20.597Z,225
2018-10-02T08:19:20.432Z,250
2018-10-02T08:20:20.894Z,220
2018-10-02T08:21:21.413Z,260
2018-10-02T08:22:20.332Z,225
2018-10-02T08:23:20.331Z,245
2018-10-02T08:24:20.872Z,245
2018-10-02T08:25:20.849Z,240
2018-10-02T08:26:20.585Z,245
2018-10-02T08:27:21.372Z,230
2018-10-02T08:28:20.577Z,245
2018-10-02T08:29:20.734Z,250
2018-10-02T08:30:20.442Z,250
2018-10-02T08:31:20.320Z,220
2018-10-02T08:32:20.045Z,225
2018-10-02T08:33:20.750Z,225
2018-10-02T08:34:20.794Z,235
2018-10-02T08:35:21.343Z,255
2018-10-02T08:36:21.335Z,280
2018-10-02T08:37:20.320Z,285
2018-10-02T08:38:20.769Z,265
2018-10-02T08:39:20.314Z,285
2018-10-02T08:40:20.339Z,290
2018-10-02T08:41:20.562Z,290
2018-10-02T08:42:20.816Z,255
2018-10-02T08:43:21.048Z,265
2018-10-02T08:44:20.303Z,265
2018-10-02T08:45:20.294Z,290
2018-10-02T08:46:20.546Z,290
2018-10-02T08:47:20.807Z,290
2018-10-02T08:48:20.550Z,310
2018-10-02T08:49:20.289Z,320
2018-10-02T08:50:20.631Z,320
2018-10-02T08:51:20.555Z,315
2018-10-02T08:52:22.079Z,315
2018-10-02T08:53:20.285Z,275
2018-10-02T08:54:20.260Z,265
2018-10-02T08:55:20.251Z,260
2018-10-02T08:56:20.295Z,255
2018-10-02T08:57:20.529Z,235
2018-10-02T08:58:20.298Z,230
2018-10-02T08:59:20.272Z,220
2018-10-02T09:00:20.554Z,215
2018-10-02T09:01:20.907Z,215
2018-10-02T09:02:20.559Z,215
2018-10-02T09:03:21.331Z,215
2018-10-02T09:04:20.513Z,215
2018-10-02T09:05:20.784Z,215
2018-10-02T09:06:20.767Z,215
2018-10-02T09:07:20.288Z,215
2018-10-02T09:08:20.779Z,220
2018-10-02T09:09:20.018Z,220
2018-10-02T09:10:20.547Z,215
2018-10-02T09:11:20.270Z,215
2018-10-02T09:12:20.561Z,215
2018-10-02T09:13:20.505Z,215
2018-10-02T09:14:20.259Z,220
2018-10-02T09:15:20.061Z,225
2018-10-02T09:16:20.526Z,230
2018-10-02T09:17:20.490Z,245
2018-10-02T09:18:20.523Z,250
2018-10-02T09:19:19.979Z,255
2018-10-02T09:20:20.272Z,270
2018-10-02T09:21:20.541Z,270
2018-10-02T09:22:20.215Z,270
2018-10-02T09:23:20.755Z,285
2018-10-02T09:24:20.540Z,285
2018-10-02T09:25:20.518Z,285
2018-10-02T09:26:19.964Z,280
2018-10-02T09:27:20.275Z,300
2018-10-02T09:28:20.722Z,280
2018-10-02T09:29:20.731Z,270
2018-10-02T09:30:20.854Z,290
2018-10-02T09:31:21.476Z,305
2018-10-02T09:32:20.251Z,315
2018-10-02T09:33:20.241Z,315
2018-10-02T09:34:20.473Z,310
2018-10-02T09:35:20.475Z,335
2018-10-02T09:36:20.034Z,335
2018-10-02T09:37:21.521Z,325
2018-10-02T09:38:20.475Z,325
2018-10-02T09:39:20.728Z,315
2018-10-02T09:40:20.597Z,340
2018-10-02T09:41:20.463Z,340
2018-10-02T09:42:20.781Z,320
2018-10-02T09:43:20.243Z,325
2018-10-02T09:44:20.193Z,305
2018-10-02T09:45:20.252Z,300
2018-10-02T09:46:20.453Z,295
2018-10-02T09:47:20.251Z,280
2018-10-02T09:48:20.231Z,260
2018-10-02T09:49:20.462Z,250
2018-10-02T09:50:20.465Z,245
2018-10-02T09:51:21.223Z,235
2018-10-02T09:52:20.435Z,230
2018-10-02T09:53:20.705Z,235
2018-10-02T09:54:20.029Z,240
2018-10-02T09:55:20.717Z,235
2018-10-02T09:56:20.443Z,225
2018-10-02T09:57:19.923Z,210
2018-10-02T09:58:20.467Z,190
2018-10-02T09:59:20.183Z,175
2018-10-02T10:00:20.256Z,165
2018-10-02T10:01:20.183Z,150
2018-10-02T10:02:20.446Z,140
2018-10-02T10:03:19.678Z,140
2018-10-02T10:04:20.137Z,140
2018-10-02T10:05:20.233Z,145
2018-10-02T10:06:20.430Z,150
2018-10-02T10:07:20.438Z,165
2018-10-02T10:08:19.950Z,180
2018-10-02T10:09:19.937Z,200
2018-10-02T10:10:20.263Z,220
2018-10-02T10:11:20.419Z,240
2018-10-02T10:12:20.446Z,260
2018-10-02T10:13:20.468Z,280
2018-10-02T10:14:20.163Z,285
2018-10-02T10:15:20.438Z,295
2018-10-02T10:16:20.467Z,300
2018-10-02T10:17:20.574Z,310
2018-10-02T10:18:20.414Z,310
2018-10-02T10:19:20.183Z,335
2018-10-02T10:20:20.410Z,330
2018-10-02T10:21:21.871Z,325
2018-10-02T10:22:20.658Z,335
2018-10-02T10:23:20.145Z,325
2018-10-02T10:24:20.396Z,315
2018-10-02T10:25:20.449Z,315
2018-10-02T10:26:19.615Z,320
2018-10-02T10:27:20.194Z,320
2018-10-02T10:28:20.717Z,320
2018-10-02T10:29:20.399Z,315
2018-10-02T10:30:20.710Z,315
2018-10-02T10:31:20.636Z,310
2018-10-02T10:32:20.646Z,310
2018-10-02T10:33:20.754Z,305
2018-10-02T10:34:20.665Z,295
2018-10-02T10:35:20.390Z,290
2018-10-02T10:36:19.870Z,280
2018-10-02T10:37:19.864Z,275
2018-10-02T10:38:20.148Z,265
2018-10-02T10:39:20.394Z,265
2018-10-02T10:40:20.644Z,260
2018-10-02T10:41:20.140Z,265
2018-10-02T10:42:20.409Z,270
2018-10-02T10:43:20.368Z,280
2018-10-02T10:44:20.648Z,280
2018-10-02T10:45:20.139Z,280
2018-10-02T10:46:20.141Z,280
2018-10-02T10:47:20.134Z,285
2018-10-02T10:48:20.382Z,290
2018-10-02T10:49:19.871Z,290
2018-10-02T10:50:20.453Z,295
2018-10-02T10:51:20.118Z,290
2018-10-02T10:52:20.653Z,295
2018-10-02T10:53:19.872Z,295
2018-10-02T10:54:20.375Z,295
2018-10-02T10:55:20.157Z,290
2018-10-02T10:56:20.810Z,285
2018-10-02T10:57:20.107Z,280
2018-10-02T10:58:20.672Z,270
2018-10-02T10:59:19.861Z,265
2018-10-02T11:00:20.688Z,260
2018-10-02T11:01:20.391Z,260
2018-10-02T11:02:20.370Z,255
2018-10-02T11:03:20.351Z,250
2018-10-02T11:04:20.174Z,250
2018-10-02T11:05:20.403Z,255
2018-10-02T11:06:20.625Z,250
2018-10-02T11:07:20.367Z,255
2018-10-02T11:08:20.105Z,255
2018-10-02T11:09:20.397Z,260
2018-10-02T11:10:20.724Z,260
2018-10-02T11:11:20.634Z,260
2018-10-02T11:12:19.862Z,260
2018-10-02T11:13:19.841Z,265
2018-10-02T11:14:20.627Z,260
2018-10-02T11:15:20.812Z,255
2018-10-02T11:16:20.100Z,250
2018-10-02T11:17:20.094Z,240
2018-10-02T11:18:20.365Z,235
2018-10-02T11:19:20.385Z,235
2018-10-02T11:20:20.100Z,235
2018-10-02T11:21:20.365Z,235
2018-10-02T11:22:20.344Z,235
2018-10-02T11:23:19.836Z,235
2018-10-02T11:24:20.592Z,235
2018-10-02T11:25:20.741Z,235
2018-10-02T11:26:20.339Z,230
2018-10-02T11:27:20.081Z,225
2018-10-02T11:28:20.354Z,225
2018-10-02T11:29:20.607Z,215
2018-10-02T11:30:20.380Z,225
2018-10-02T11:31:20.407Z,230
2018-10-02T11:32:20.372Z,235
2018-10-02T11:33:20.360Z,235
2018-10-02T11:34:19.822Z,245
2018-10-02T11:35:20.256Z,255
2018-10-02T11:36:20.587Z,260
2018-10-02T11:37:20.317Z,255
2018-10-02T11:38:20.576Z,255
2018-10-02T11:39:20.076Z,255
2018-10-02T11:40:20.162Z,250
2018-10-02T11:41:19.562Z,245
2018-10-02T11:42:20.629Z,240
2018-10-02T11:43:20.636Z,240
2018-10-02T11:44:21.553Z,245
2018-10-02T11:45:20.420Z,250
2018-10-02T11:46:20.352Z,255
2018-10-02T11:47:20.058Z,250
2018-10-02T11:48:20.590Z,245
2018-10-02T11:49:20.906Z,240
2018-10-02T11:50:20.578Z,235
2018-10-02T11:51:19.805Z,235
2018-10-02T11:52:23.568Z,240
2018-10-02T11:53:20.297Z,250
2018-10-02T11:54:20.548Z,265
2018-10-02T11:55:20.902Z,275
2018-10-02T11:56:20.545Z,290
2018-10-02T11:57:20.365Z,300
2018-10-02T11:58:20.565Z,305
2018-10-02T11:59:20.313Z,305
2018-10-02T12:00:20.414Z,310
2018-10-02T12:01:21.638Z,315
2018-10-02T12:02:20.320Z,320
2018-10-02T12:03:20.193Z,315
2018-10-02T12:04:20.368Z,310
2018-10-02T12:05:20.331Z,305
2018-10-02T12:06:20.059Z,305
2018-10-02T12:07:20.574Z,295
2018-10-02T12:08:20.090Z,295
2018-10-02T12:09:20.181Z,285
2018-10-02T12:10:20.194Z,275
2018-10-02T12:11:20.351Z,270
2018-10-02T12:12:20.333Z,260
2018-10-02T12:13:20.840Z,250
2018-10-02T12:14:22.126Z,245
2018-10-02T12:15:20.746Z,240
2018-10-02T12:16:20.546Z,240
2018-10-02T12:17:19.806Z,240
2018-10-02T12:18:20.289Z,240
2018-10-02T12:19:20.493Z,245
2018-10-02T12:20:20.120Z,245
2018-10-02T12:21:20.294Z,245
2018-10-02T12:22:20.334Z,245
2018-10-02T12:23:20.551Z,240
2018-10-02T12:24:19.779Z,240
2018-10-02T12:25:20.422Z,235
2018-10-02T12:26:20.299Z,235
2018-10-02T12:27:20.278Z,230
2018-10-02T12:28:20.032Z,230
2018-10-02T12:29:20.035Z,225
2018-10-02T12:30:20.306Z,225
2018-10-02T12:31:21.064Z,225
2018-10-02T12:32:20.018Z,220
2018-10-02T12:33:20.530Z,220
2018-10-02T12:34:20.024Z,220
2018-10-02T12:35:20.275Z,220
2018-10-02T12:36:20.298Z,215
2018-10-02T12:37:20.285Z,210
2018-10-02T12:38:20.283Z,205
2018-10-02T12:39:20.270Z,200
2018-10-02T12:40:20.065Z,190
2018-10-02T12:41:20.032Z,185
2018-10-02T12:42:20.380Z,180
2018-10-02T12:43:20.278Z,175
2018-10-02T12:44:20.274Z,175
2018-10-02T12:45:20.356Z,170
2018-10-02T12:46:20.736Z,170
2018-10-02T12:47:20.043Z,175
2018-10-02T12:48:20.290Z,180
2018-10-02T12:49:19.777Z,185
2018-10-02T12:50:20.391Z,190
2018-10-02T12:51:19.560Z,190
2018-10-02T12:52:21.049Z,195
2018-10-02T12:53:20.778Z,200
2018-10-02T12:54:20.288Z,200
2018-10-02T12:55:20.537Z,195
2018-10-02T12:56:20.517Z,190
2018-10-02T12:57:19.764Z,185
2018-10-02T12:58:20.509Z,185
2018-10-02T12:59:20.160Z,180
2018-10-02T13:00:20.075Z,175
2018-10-02T13:01:19.998Z,175
2018-10-02T13:02:20.527Z,170
2018-10-02T13:03:20.550Z,170
2018-10-02T13:04:20.509Z,170
2018-10-02T13:05:19.797Z,170
2018-10-02T13:06:20.255Z,175
2018-10-02T13:07:20.502Z,180
2018-10-02T13:08:20.494Z,180
2018-10-02T13:09:20.424Z,185
2018-10-02T13:10:20.176Z,180
2018-10-02T13:11:19.795Z,180
2018-10-02T13:12:20.313Z,175
2018-10-02T13:13:20.970Z,170
2018-10-02T13:14:20.255Z,170
2018-10-02T13:15:20.563Z,165
2018-10-02T13:16:19.724Z,165
2018-10-02T13:17:19.976Z,160
2018-10-02T13:18:20.486Z,155
2018-10-02T13:19:19.993Z,155
2018-10-02T13:20:20.033Z,150
2018-10-02T13:21:20.219Z,145
2018-10-02T13:22:20.231Z,145
2018-10-02T13:23:21.815Z,145
2018-10-02T13:24:20.469Z,145
2018-10-02T13:25:20.387Z,150
2018-10-02T13:26:19.961Z,150
2018-10-02T13:27:20.458Z,145
2018-10-02T13:28:20.219Z,145
2018-10-02T13:29:20.468Z,140
2018-10-02T13:30:20.262Z,140
2018-10-02T13:31:20.239Z,135
2018-10-02T13:32:20.528Z,130
2018-10-02T13:33:20.199Z,130
2018-10-02T13:34:20.240Z,125
2018-10-02T13:35:20.535Z,125
2018-10-02T13:36:20.196Z,125
2018-10-02T13:37:20.209Z,120
2018-10-02T13:38:20.218Z,115
2018-10-02T13:39:20.246Z,115
2018-10-02T13:40:20.494Z,115
2018-10-02T13:41:20.248Z,115
2018-10-02T13:42:19.994Z,120
2018-10-02T13:43:20.274Z,120
2018-10-02T13:44:19.689Z,120
2018-10-02T13:45:19.969Z,125
2018-10-02T13:46:20.188Z,120
2018-10-02T13:47:19.934Z,125
2018-10-02T13:48:21.526Z,125
2018-10-02T13:49:19.679Z,130
2018-10-02T13:50:20.581Z,130
2018-10-02T13:51:20.183Z,130
2018-10-02T13:52:19.690Z,130
2018-10-02T13:53:20.442Z,130
2018-10-02T13:54:19.943Z,125
2018-10-02T13:55:20.460Z,120
2018-10-02T13:56:20.177Z,120
2018-10-02T13:57:19.908Z,115
2018-10-02T13:58:20.427Z,110
2018-10-02T13:59:20.445Z,110
2018-10-02T14:00:20.007Z,105
2018-10-02T14:01:20.275Z,105
2018-10-02T14:02:19.644Z,110
2018-10-02T14:03:20.188Z,110
2018-10-02T14:04:20.340Z,115
2018-10-02T14:05:20.212Z,115
2018-10-02T14:06:20.194Z,115
2018-10-02T14:07:19.896Z,115
2018-10-02T14:08:20.060Z,110
2018-10-02T14:09:19.652Z,110
2018-10-02T14:10:19.926Z,115
2018-10-02T14:11:19.887Z,115